الصفحة الرئيسية
METAR-TAF:

METAR-TAF

مطار :

Monument Pass

Elbert, كولورادو, الولايات المتحدة

دائرة عرض: 39-13-00N, خط طول: 104-38-02W, ارتفاع: 2152 متر

مراقبة الطقس الحالي

تاريخ ووقت الإصدار 25 دقيقة قبل الساعة 22:05UTC
ريح 4 عقدة من الشمال الشرقي
درجة الحرارة 3°درجة مئوية
الرطوبة 38%
ضغط 1027 hPa
الرؤية: 16.1 كم
سماء صافية

METAR: KMNH 152205Z AUTO 05004KT 10SM CLR 03/M10 A3033 RMK AO2

زمن: 16:30 (22:30 UTC)


TAF: مفقودة

أرصاد الطقس والتوقعات من أكثر من 4000 مطار (تقارير الطقس للمطار METAR والتنبؤ بالطقس بالمطارTAF).

المحطات المتاحة هي النقط الصفراء والحمراء على الخريطة.

حرك المؤشر فوق النقطة لمعرفة اسم المحطة.

ثم انقر لمعرفة أرصاد وتوقعات الطقس.

لتغيير الخارطة: اضغط على الأزرار الخضراء مع رمز الصليب الأسود للتكبير. على الزر الأخضر مع شرطة للتصغير، أو على الأسهم الخضراء للخرائط المجاورة.


METAR-TAF: